Archival Weather

Heathrow

London, United Kingdom (EGLL)

Report from: Friday, June 21, 2024 5:50 AM BST
Current time: Sunday, July 14, 2024 12:12 PM BST

Current weather – Weather history – Daily summaries
Weather forecast

Temperature14.0°C (57.2°F)
Dew point11.0°C (51.8°F)
Winds 2 kts (1 m/s, 2.3 mph) Vrb
Winds variableWinds variable
Visibility6.2 mi. (10 km)
Clouds Sky clear
Altimeter29.97 in.Hg (1015 mB)
Relative humidity82 %
Density altitude7 ft. (2 m)
Remarks Fully automated report
Corrected report
No clouds detected
No significant changes expected in the next two hours
Flight conditions Visual Meteorological Conditions
Raw dataCOR EGLL 210450Z AUTO VRB02KT 9999 NCD 14/11 Q1015 NOSIG
An error has occurred. This application may no longer respond until reloaded. Reload 🗙